createdAt,value
2022-07-29T00:02:23.687Z,4.40
2022-07-29T00:04:53.922Z,4.15
2022-07-29T00:07:24.370Z,3.75
2022-07-29T00:09:54.854Z,4.22
2022-07-29T00:12:27.002Z,4.25
2022-07-29T00:15:00.878Z,4.28
2022-07-29T00:20:01.069Z,4.70
2022-07-29T00:22:31.162Z,4.20
2022-07-29T00:25:01.378Z,4.35
2022-07-29T00:27:31.524Z,4.30
2022-07-29T00:30:04.540Z,4.63
2022-07-29T00:32:34.903Z,4.45
2022-07-29T00:35:17.416Z,4.22
2022-07-29T00:37:48.013Z,4.60
2022-07-29T00:40:18.396Z,4.15
2022-07-29T00:42:55.666Z,4.45
2022-07-29T00:45:28.361Z,4.35
2022-07-29T00:47:58.500Z,4.10
2022-07-29T00:50:28.775Z,4.60
2022-07-29T00:52:59.132Z,4.18
2022-07-29T00:55:29.470Z,4.18
2022-07-29T00:58:01.585Z,4.00
2022-07-29T01:00:37.765Z,3.70
2022-07-29T01:03:08.126Z,4.32
2022-07-29T01:05:50.788Z,4.05
2022-07-29T01:08:24.115Z,4.00
2022-07-29T01:10:55.083Z,4.45
2022-07-29T01:13:26.763Z,4.22
2022-07-29T01:16:07.403Z,4.20
2022-07-29T01:18:41.760Z,4.03
2022-07-29T01:21:31.507Z,3.72
2022-07-29T01:24:19.565Z,4.25
2022-07-29T01:26:52.086Z,4.25
2022-07-29T01:29:38.493Z,4.35
2022-07-29T01:32:27.694Z,4.05
2022-07-29T01:35:07.313Z,4.00
2022-07-29T01:37:43.651Z,4.57
2022-07-29T01:40:20.937Z,4.20
2022-07-29T01:42:56.253Z,4.13
2022-07-29T01:45:35.792Z,3.92
2022-07-29T01:48:10.939Z,4.07
2022-07-29T01:50:48.221Z,4.03
2022-07-29T01:53:24.578Z,3.97
2022-07-29T01:55:56.804Z,3.85
2022-07-29T01:58:31.067Z,4.72
2022-07-29T02:01:05.640Z,4.25
2022-07-29T02:03:36.853Z,4.25
2022-07-29T02:06:10.889Z,4.35
2022-07-29T02:08:42.658Z,4.82
2022-07-29T02:11:13.146Z,4.20
2022-07-29T02:13:45.082Z,4.07
2022-07-29T02:16:21.592Z,3.80
2022-07-29T02:18:54.397Z,4.20
2022-07-29T02:21:29.185Z,4.22
2022-07-29T02:24:03.361Z,4.03
2022-07-29T02:26:36.379Z,4.57
2022-07-29T02:29:06.610Z,4.60
2022-07-29T02:31:40.876Z,4.57
2022-07-29T02:34:13.804Z,4.28
2022-07-29T02:36:49.914Z,4.57
2022-07-29T02:39:21.160Z,4.88
2022-07-29T02:41:53.002Z,4.97
2022-07-29T02:44:25.394Z,4.55
2022-07-29T02:47:08.196Z,4.50
2022-07-29T02:49:41.163Z,4.85
2022-07-29T02:52:16.511Z,4.57
2022-07-29T02:54:54.530Z,4.50
2022-07-29T02:57:27.575Z,5.07
2022-07-29T03:00:04.272Z,5.00
2022-07-29T03:02:41.854Z,4.93
2022-07-29T03:05:16.935Z,5.05
2022-07-29T03:07:51.390Z,4.68
2022-07-29T03:10:23.127Z,4.88
2022-07-29T03:12:54.256Z,5.95
2022-07-29T03:15:28.462Z,5.10
2022-07-29T03:18:04.732Z,5.20
2022-07-29T03:20:34.939Z,4.63
2022-07-29T03:23:05.550Z,5.38
2022-07-29T03:25:35.735Z,4.80
2022-07-29T03:28:06.036Z,5.28
2022-07-29T03:30:36.277Z,5.13
2022-07-29T03:33:13.430Z,5.38
2022-07-29T03:35:44.363Z,4.43
2022-07-29T03:38:14.656Z,4.35
2022-07-29T03:40:50.553Z,4.75
2022-07-29T03:43:22.497Z,4.78
2022-07-29T03:45:55.724Z,4.90
2022-07-29T03:48:30.535Z,4.72
2022-07-29T03:51:00.985Z,5.28
2022-07-29T03:53:31.278Z,4.57
2022-07-29T03:56:05.879Z,4.60
2022-07-29T03:58:36.790Z,4.90
2022-07-29T04:01:07.173Z,4.80
2022-07-29T04:03:40.623Z,4.93
2022-07-29T04:06:11.202Z,4.95
2022-07-29T04:08:42.002Z,4.63
2022-07-29T04:11:12.317Z,5.22
2022-07-29T04:13:42.634Z,4.85
2022-07-29T04:16:12.785Z,5.00
2022-07-29T04:18:46.193Z,4.93
2022-07-29T04:21:16.292Z,4.55
2022-07-29T04:23:53.280Z,5.28
2022-07-29T04:26:24.716Z,4.90
2022-07-29T04:28:54.872Z,5.75
2022-07-29T04:31:25.963Z,5.40
2022-07-29T04:33:58.910Z,5.22
2022-07-29T04:36:30.093Z,5.97
2022-07-29T04:39:00.424Z,4.82
2022-07-29T04:41:32.974Z,4.53
2022-07-29T04:44:07.122Z,4.82
2022-07-29T04:46:37.731Z,4.22
2022-07-29T04:49:10.819Z,4.90
2022-07-29T04:51:40.979Z,4.55
2022-07-29T04:54:11.175Z,4.07
2022-07-29T04:56:41.287Z,4.70
2022-07-29T04:59:14.206Z,4.43
2022-07-29T05:01:44.474Z,4.25
2022-07-29T05:04:17.618Z,4.40
2022-07-29T05:09:18.546Z,4.18
2022-07-29T05:11:48.666Z,4.32
2022-07-29T05:14:19.063Z,4.47
2022-07-29T05:16:52.159Z,3.55
2022-07-29T05:19:24.910Z,4.38
2022-07-29T05:21:55.099Z,4.40
2022-07-29T05:24:25.298Z,4.25
2022-07-29T05:27:00.794Z,4.20
2022-07-29T05:29:44.127Z,4.13
2022-07-29T05:32:15.451Z,4.20
2022-07-29T05:34:51.439Z,4.25
2022-07-29T05:37:22.839Z,4.22
2022-07-29T05:39:56.963Z,4.07
2022-07-29T05:42:27.800Z,4.00
2022-07-29T05:44:58.117Z,4.50
2022-07-29T05:47:28.521Z,4.68
2022-07-29T05:50:01.482Z,4.60
2022-07-29T05:52:31.717Z,4.88
2022-07-29T05:55:05.469Z,4.57
2022-07-29T05:57:36.178Z,4.22
2022-07-29T06:00:07.868Z,4.20
2022-07-29T06:02:39.225Z,3.97
2022-07-29T06:05:16.302Z,4.00
2022-07-29T06:07:50.130Z,4.03
2022-07-29T06:10:23.943Z,3.83
2022-07-29T06:12:57.765Z,4.00
2022-07-29T06:15:27.833Z,4.28
2022-07-29T06:18:00.050Z,4.22
2022-07-29T06:23:06.852Z,4.22
2022-07-29T06:25:37.875Z,4.05
2022-07-29T06:28:08.334Z,3.85
2022-07-29T06:30:38.702Z,4.50
2022-07-29T06:33:09.512Z,4.05
2022-07-29T06:35:51.612Z,3.90
2022-07-29T06:38:30.897Z,3.97
2022-07-29T06:41:04.999Z,3.80
2022-07-29T06:43:51.865Z,3.95
2022-07-29T06:46:24.252Z,4.00
2022-07-29T06:48:55.850Z,3.60
2022-07-29T06:51:28.647Z,4.10
2022-07-29T06:54:02.476Z,3.70
2022-07-29T06:56:38.873Z,3.83
2022-07-29T06:59:10.586Z,4.30
2022-07-29T07:01:41.519Z,5.03
2022-07-29T07:04:12.645Z,5.75
2022-07-29T07:06:45.529Z,5.65
2022-07-29T07:11:46.255Z,5.80
2022-07-29T07:14:20.535Z,5.93
2022-07-29T07:16:52.710Z,5.28
2022-07-29T07:19:24.885Z,5.43
2022-07-29T07:21:57.638Z,5.60
2022-07-29T07:26:58.135Z,5.10
2022-07-29T07:29:28.430Z,5.20
2022-07-29T07:32:00.980Z,6.25
2022-07-29T07:34:31.589Z,6.72
2022-07-29T07:37:04.543Z,5.32
2022-07-29T07:39:36.847Z,4.55
2022-07-29T07:42:07.203Z,4.37
2022-07-29T07:44:57.320Z,5.38
2022-07-29T07:47:28.094Z,4.47
2022-07-29T07:49:58.935Z,5.30
2022-07-29T07:52:31.794Z,4.30
2022-07-29T07:55:02.221Z,4.70
2022-07-29T07:57:32.752Z,4.65
2022-07-29T08:00:02.838Z,4.50
2022-07-29T08:02:34.178Z,4.90
2022-07-29T08:05:04.452Z,4.60
2022-07-29T08:07:37.186Z,4.13
2022-07-29T08:10:08.562Z,4.38
2022-07-29T08:12:38.815Z,3.83
2022-07-29T08:15:11.138Z,4.43
2022-07-29T08:17:42.483Z,5.37
2022-07-29T08:20:14.318Z,4.45
2022-07-29T08:22:47.052Z,5.13
2022-07-29T08:25:19.078Z,4.25
2022-07-29T08:27:49.195Z,4.88
2022-07-29T08:30:19.580Z,4.32
2022-07-29T08:32:55.099Z,4.80
2022-07-29T08:35:27.934Z,4.45
2022-07-29T08:38:04.558Z,4.40
2022-07-29T08:40:34.711Z,4.20
2022-07-29T08:43:09.757Z,4.07
2022-07-29T08:45:48.503Z,4.20
2022-07-29T08:48:23.936Z,5.32
2022-07-29T08:50:59.295Z,4.15
2022-07-29T08:53:32.955Z,4.30
2022-07-29T08:56:07.452Z,3.90
2022-07-29T08:58:38.593Z,4.47
2022-07-29T09:01:12.333Z,4.32
2022-07-29T09:06:17.584Z,4.18
2022-07-29T09:08:50.750Z,4.07
2022-07-29T09:11:21.176Z,4.28
2022-07-29T09:13:51.249Z,3.75
2022-07-29T09:16:43.862Z,4.15
2022-07-29T09:19:23.826Z,4.18
2022-07-29T09:22:04.085Z,3.95
2022-07-29T09:24:44.531Z,4.22
2022-07-29T09:27:23.701Z,4.03
2022-07-29T09:30:02.921Z,3.97
2022-07-29T09:32:34.145Z,3.88
2022-07-29T09:35:23.806Z,4.13
2022-07-29T09:37:55.118Z,3.88
2022-07-29T09:40:30.840Z,4.40
2022-07-29T09:43:01.170Z,4.00
2022-07-29T09:45:33.357Z,4.00
2022-07-29T09:48:16.557Z,4.05
2022-07-29T09:50:50.681Z,4.03
2022-07-29T09:53:36.879Z,4.53
2022-07-29T09:56:11.763Z,4.32
2022-07-29T09:58:41.972Z,4.45
2022-07-29T10:01:12.548Z,4.47
2022-07-29T10:03:55.723Z,4.18
2022-07-29T10:06:25.866Z,4.00
2022-07-29T10:08:56.267Z,3.92
2022-07-29T10:11:48.351Z,4.43
2022-07-29T10:14:19.432Z,4.07
2022-07-29T10:16:49.573Z,3.90
2022-07-29T10:19:20.830Z,3.83
2022-07-29T10:21:55.071Z,4.13
2022-07-29T10:24:30.364Z,4.00
2022-07-29T10:27:04.712Z,4.40
2022-07-29T10:29:36.919Z,3.90
2022-07-29T10:32:33.745Z,4.22
2022-07-29T10:35:23.750Z,4.10
2022-07-29T10:38:16.245Z,4.55
2022-07-29T10:41:09.295Z,4.00
2022-07-29T10:43:47.495Z,3.72
2022-07-29T10:46:22.177Z,3.85
2022-07-29T10:49:11.923Z,3.38
2022-07-29T10:52:08.342Z,3.50
2022-07-29T10:54:51.754Z,3.78
2022-07-29T10:57:53.139Z,3.58
2022-07-29T11:00:35.810Z,2.55
2022-07-29T11:03:10.476Z,3.20
2022-07-29T11:06:01.959Z,3.28
2022-07-29T11:08:43.189Z,3.72
2022-07-29T11:11:37.994Z,3.40
2022-07-29T11:14:10.376Z,3.60
2022-07-29T11:17:06.936Z,3.50
2022-07-29T11:19:44.775Z,3.00
2022-07-29T11:22:36.245Z,3.40
2022-07-29T11:25:50.156Z,2.88
2022-07-29T11:31:09.333Z,3.10
2022-07-29T11:33:56.083Z,3.88
2022-07-29T11:39:36.222Z,3.70
2022-07-29T11:42:37.417Z,3.83
2022-07-29T11:45:41.259Z,3.63
2022-07-29T11:48:29.607Z,4.00
2022-07-29T11:51:01.179Z,4.10
2022-07-29T11:53:32.701Z,3.58
2022-07-29T11:56:04.847Z,3.30
2022-07-29T11:58:35.540Z,3.30
2022-07-29T12:01:08.968Z,3.70
2022-07-29T12:03:39.330Z,3.35
2022-07-29T12:06:18.643Z,3.17
2022-07-29T12:07:01.386Z,3.28
2022-07-29T12:08:51.464Z,3.40
2022-07-29T12:11:23.531Z,3.00
2022-07-29T12:13:55.274Z,3.55
2022-07-29T12:16:29.704Z,2.97
2022-07-29T12:19:02.294Z,3.53
2022-07-29T12:21:53.611Z,2.88
2022-07-29T12:24:27.712Z,3.55
2022-07-29T12:26:59.329Z,3.67
2022-07-29T12:29:34.760Z,3.40
2022-07-29T12:32:14.429Z,3.05
2022-07-29T12:34:45.494Z,3.97
2022-07-29T12:37:18.626Z,3.75
2022-07-29T12:39:49.262Z,3.70
2022-07-29T12:42:19.875Z,3.70
2022-07-29T12:44:52.769Z,3.97
2022-07-29T12:50:12.159Z,4.55
2022-07-29T12:52:45.067Z,4.15
2022-07-29T12:55:15.699Z,4.38
2022-07-29T12:57:51.718Z,4.13
2022-07-29T13:00:27.270Z,4.30
2022-07-29T13:02:59.946Z,4.00
2022-07-29T13:05:48.876Z,4.00
2022-07-29T13:08:22.750Z,3.90
2022-07-29T13:10:53.262Z,4.25
2022-07-29T13:13:23.422Z,4.18
2022-07-29T13:16:10.155Z,3.85
2022-07-29T13:18:42.360Z,4.13
2022-07-29T13:21:16.958Z,3.57
2022-07-29T13:23:51.720Z,3.67
2022-07-29T13:26:21.788Z,4.18
2022-07-29T13:28:52.081Z,4.68
2022-07-29T13:31:23.188Z,4.03
2022-07-29T13:33:53.521Z,3.90
2022-07-29T13:36:24.722Z,4.30
2022-07-29T13:38:57.540Z,3.63
2022-07-29T13:41:27.842Z,4.05
2022-07-29T13:44:06.200Z,3.97
2022-07-29T13:46:39.613Z,4.60
2022-07-29T13:49:11.774Z,4.30
2022-07-29T13:51:42.283Z,4.13
2022-07-29T13:54:15.030Z,4.30
2022-07-29T13:56:46.293Z,4.10
2022-07-29T13:59:16.822Z,4.47
2022-07-29T14:01:47.318Z,4.53
2022-07-29T14:04:17.535Z,4.20
2022-07-29T14:06:47.878Z,3.78
2022-07-29T14:09:22.661Z,3.83
2022-07-29T14:11:53.953Z,4.28
2022-07-29T14:14:24.674Z,4.70
2022-07-29T14:16:54.869Z,4.88
2022-07-29T14:19:25.149Z,4.10
2022-07-29T14:21:55.546Z,4.35
2022-07-29T14:24:32.370Z,4.70
2022-07-29T14:27:02.744Z,4.45
2022-07-29T14:29:36.974Z,4.78
2022-07-29T14:32:10.135Z,4.45
2022-07-29T14:34:41.270Z,4.72
2022-07-29T14:37:16.094Z,4.53
2022-07-29T14:39:49.384Z,5.10
2022-07-29T14:42:19.572Z,4.95
2022-07-29T14:44:50.434Z,5.32
2022-07-29T14:47:20.657Z,5.20
2022-07-29T14:49:50.949Z,4.18
2022-07-29T14:52:21.124Z,4.22
2022-07-29T14:54:53.829Z,4.40
2022-07-29T14:57:24.037Z,4.40
2022-07-29T14:59:55.299Z,4.38
2022-07-29T15:02:40.003Z,4.70
2022-07-29T15:05:16.144Z,4.55
2022-07-29T15:07:46.438Z,4.60
2022-07-29T15:10:19.530Z,4.78
2022-07-29T15:12:51.063Z,4.28
2022-07-29T15:15:21.213Z,4.50
2022-07-29T15:17:51.920Z,4.50
2022-07-29T15:20:22.560Z,4.70
2022-07-29T15:22:52.680Z,4.53
2022-07-29T15:25:25.533Z,4.60
2022-07-29T15:28:01.734Z,4.82
2022-07-29T15:30:34.623Z,4.82
2022-07-29T15:33:06.121Z,4.47
2022-07-29T15:35:40.527Z,4.75
2022-07-29T15:38:11.670Z,4.63
2022-07-29T15:40:45.526Z,4.78
2022-07-29T15:43:15.700Z,4.70
2022-07-29T15:46:08.140Z,4.53
2022-07-29T15:48:42.288Z,4.68
2022-07-29T15:51:12.525Z,4.95
2022-07-29T15:53:42.675Z,4.65
2022-07-29T15:56:15.453Z,4.60
2022-07-29T15:58:45.636Z,4.88
2022-07-29T16:01:15.932Z,4.68
2022-07-29T16:03:48.974Z,5.30
2022-07-29T16:08:49.830Z,4.57
2022-07-29T16:11:23.104Z,4.90
2022-07-29T16:13:53.239Z,4.40
2022-07-29T16:16:23.727Z,4.03
2022-07-29T16:18:54.250Z,4.65
2022-07-29T16:21:27.571Z,5.40
2022-07-29T16:23:58.371Z,5.22
2022-07-29T16:26:31.251Z,4.25
2022-07-29T16:29:02.279Z,4.43
2022-07-29T16:31:32.590Z,5.07
2022-07-29T16:34:03.841Z,4.57
2022-07-29T16:36:36.031Z,4.63
2022-07-29T16:39:07.133Z,4.30
2022-07-29T16:41:39.923Z,4.53
2022-07-29T16:44:09.995Z,4.32
2022-07-29T16:46:41.424Z,4.18
2022-07-29T16:49:11.767Z,4.85
2022-07-29T16:51:45.260Z,4.40
2022-07-29T16:54:15.536Z,4.85
2022-07-29T16:56:48.291Z,4.72
2022-07-29T16:59:18.612Z,4.35
2022-07-29T17:01:48.869Z,4.30
2022-07-29T17:04:19.102Z,4.53
2022-07-29T17:06:49.804Z,4.05
2022-07-29T17:09:21.146Z,4.13
2022-07-29T17:11:56.150Z,4.72
2022-07-29T17:14:27.844Z,3.95
2022-07-29T17:17:01.099Z,4.57
2022-07-29T17:19:34.160Z,4.40
2022-07-29T17:22:11.788Z,4.03
2022-07-29T17:24:45.909Z,4.45
2022-07-29T17:27:19.023Z,4.40
2022-07-29T17:32:19.465Z,4.10
2022-07-29T17:34:49.621Z,4.00
2022-07-29T17:37:19.810Z,4.18
2022-07-29T17:39:50.942Z,4.30
2022-07-29T17:42:23.774Z,4.00
2022-07-29T17:44:53.990Z,3.95
2022-07-29T17:47:24.115Z,4.28
2022-07-29T17:49:54.224Z,3.90
2022-07-29T17:52:24.385Z,4.07
2022-07-29T17:54:54.583Z,3.97
2022-07-29T17:57:27.525Z,3.95
2022-07-29T17:59:57.644Z,3.95
2022-07-29T18:02:28.496Z,3.90
2022-07-29T18:04:58.793Z,3.80
2022-07-29T18:07:28.968Z,4.65
2022-07-29T18:10:00.743Z,4.10
2022-07-29T18:12:33.817Z,4.45
2022-07-29T18:15:03.905Z,4.22
2022-07-29T18:17:48.437Z,4.00
2022-07-29T18:20:24.391Z,4.07
2022-07-29T18:22:54.622Z,4.15
2022-07-29T18:25:25.816Z,4.50
2022-07-29T18:28:00.640Z,4.38
2022-07-29T18:30:33.903Z,4.10
2022-07-29T18:33:24.292Z,4.38
2022-07-29T18:36:04.227Z,4.10
2022-07-29T18:38:41.850Z,4.35
2022-07-29T18:41:12.035Z,5.03
2022-07-29T18:43:45.612Z,4.95
2022-07-29T18:46:15.801Z,4.30
2022-07-29T18:48:46.072Z,4.30
2022-07-29T18:51:16.246Z,4.07
2022-07-29T18:53:46.616Z,4.38
2022-07-29T18:56:16.705Z,4.80
2022-07-29T18:58:49.686Z,5.03
2022-07-29T19:01:19.982Z,4.82
2022-07-29T19:03:50.275Z,4.65
2022-07-29T19:06:25.317Z,4.28
2022-07-29T19:08:56.621Z,4.68
2022-07-29T19:11:27.026Z,4.32
2022-07-29T19:13:59.754Z,4.43
2022-07-29T19:16:32.327Z,3.90
2022-07-29T19:19:03.666Z,4.53
2022-07-29T19:21:33.793Z,4.03
2022-07-29T19:24:06.756Z,4.05
2022-07-29T19:26:44.110Z,4.00
2022-07-29T19:29:17.554Z,4.30
2022-07-29T19:34:17.788Z,4.10
2022-07-29T19:36:47.991Z,4.60
2022-07-29T19:39:18.321Z,4.30
2022-07-29T19:42:03.508Z,4.22
2022-07-29T19:44:36.519Z,4.22
2022-07-29T19:47:06.782Z,4.40
2022-07-29T19:49:42.122Z,4.38
2022-07-29T19:52:12.621Z,4.00
2022-07-29T19:54:42.840Z,4.20
2022-07-29T19:57:12.954Z,4.10
2022-07-29T19:59:47.222Z,4.00
2022-07-29T20:02:17.474Z,4.45
2022-07-29T20:04:47.807Z,3.92
2022-07-29T20:07:18.066Z,3.83
2022-07-29T20:09:49.481Z,4.13
2022-07-29T20:12:19.646Z,4.07
2022-07-29T20:14:53.516Z,3.88
2022-07-29T20:17:23.602Z,3.70
2022-07-29T20:19:56.464Z,4.35
2022-07-29T20:22:26.588Z,4.40
2022-07-29T20:24:56.966Z,4.25
2022-07-29T20:27:27.053Z,4.50
2022-07-29T20:29:59.946Z,4.22
2022-07-29T20:32:30.234Z,4.05
2022-07-29T20:35:00.408Z,4.10
2022-07-29T20:37:30.627Z,4.32
2022-07-29T20:40:00.758Z,4.25
2022-07-29T20:42:30.918Z,3.85
2022-07-29T20:45:08.352Z,4.28
2022-07-29T20:47:39.130Z,4.35
2022-07-29T20:50:10.481Z,4.45
2022-07-29T20:52:41.568Z,4.18
2022-07-29T20:55:12.450Z,3.80
2022-07-29T20:57:43.177Z,4.20
2022-07-29T21:00:17.021Z,4.00
2022-07-29T21:02:47.561Z,3.65
2022-07-29T21:05:17.874Z,4.45
2022-07-29T21:07:48.093Z,4.55
2022-07-29T21:10:18.529Z,4.57
2022-07-29T21:12:49.681Z,4.72
2022-07-29T21:15:24.013Z,4.47
2022-07-29T21:18:00.729Z,4.47
2022-07-29T21:20:31.851Z,4.32
2022-07-29T21:23:02.011Z,4.60
2022-07-29T21:25:34.443Z,4.43
2022-07-29T21:28:17.557Z,4.85
2022-07-29T21:30:50.378Z,4.30
2022-07-29T21:33:20.579Z,4.43
2022-07-29T21:38:41.924Z,5.60
2022-07-29T21:41:14.917Z,4.82
2022-07-29T21:43:46.229Z,4.97
2022-07-29T21:46:20.804Z,4.72
2022-07-29T21:48:54.914Z,5.15
2022-07-29T21:51:25.202Z,4.47
2022-07-29T21:53:55.356Z,4.95
2022-07-29T21:56:27.968Z,5.00
2022-07-29T21:58:59.009Z,5.07
2022-07-29T22:01:39.039Z,3.50
2022-07-29T22:04:09.862Z,4.35
2022-07-29T22:06:40.040Z,3.88
2022-07-29T22:09:10.373Z,3.63
2022-07-29T22:11:40.552Z,3.55
2022-07-29T22:14:10.741Z,3.22
2022-07-29T22:16:43.743Z,3.28
2022-07-29T22:19:13.964Z,2.95
2022-07-29T22:21:44.913Z,3.40
2022-07-29T22:24:15.001Z,3.75
2022-07-29T22:26:45.157Z,3.45
2022-07-29T22:29:17.744Z,3.00
2022-07-29T22:31:50.571Z,3.10
2022-07-29T22:34:20.669Z,3.10
2022-07-29T22:36:50.850Z,3.03
2022-07-29T22:39:21.057Z,3.10
2022-07-29T22:41:51.325Z,3.35
2022-07-29T22:44:21.594Z,3.17
2022-07-29T22:46:54.136Z,3.00
2022-07-29T22:49:24.291Z,2.80
2022-07-29T22:51:54.619Z,3.58
2022-07-29T22:54:24.693Z,3.13
2022-07-29T22:56:55.327Z,3.00
2022-07-29T22:59:25.410Z,2.97
2022-07-29T23:01:58.267Z,3.00
2022-07-29T23:04:28.426Z,3.00
2022-07-29T23:06:58.725Z,3.00
2022-07-29T23:09:30.091Z,2.85
2022-07-29T23:12:00.198Z,3.25
2022-07-29T23:14:30.276Z,2.60
2022-07-29T23:17:03.505Z,2.97
2022-07-29T23:22:04.178Z,3.35
2022-07-29T23:24:34.294Z,3.17
2022-07-29T23:27:04.468Z,3.08
2022-07-29T23:29:36.920Z,3.60
2022-07-29T23:32:10.277Z,3.40
2022-07-29T23:34:40.317Z,3.28
2022-07-29T23:37:10.502Z,3.00
2022-07-29T23:39:40.837Z,2.88
2022-07-29T23:42:10.950Z,3.10
2022-07-29T23:44:41.101Z,3.10
2022-07-29T23:47:13.885Z,3.67
2022-07-29T23:49:44.030Z,3.15
2022-07-29T23:52:14.229Z,3.53
2022-07-29T23:54:44.394Z,3.33
2022-07-29T23:57:14.567Z,5.00
2022-07-29T23:59:44.778Z,3.30
